sensor_id;sensor_type;location;lat;lon;timestamp;temperature;humidity
11762;DHT22;5938;47.098;15.474;2023-12-20T00:00:02;-2.80;99.90
11762;DHT22;5938;47.098;15.474;2023-12-20T00:04:06;-3.10;99.90
11762;DHT22;5938;47.098;15.474;2023-12-20T00:08:09;-2.90;99.90
11762;DHT22;5938;47.098;15.474;2023-12-20T00:12:14;-2.80;99.90
11762;DHT22;5938;47.098;15.474;2023-12-20T00:16:17;-2.70;99.90
11762;DHT22;5938;47.098;15.474;2023-12-20T00:20:21;-2.70;99.90
11762;DHT22;5938;47.098;15.474;2023-12-20T00:24:24;-2.80;99.90
11762;DHT22;5938;47.098;15.474;2023-12-20T00:28:29;-3.20;99.90
11762;DHT22;5938;47.098;15.474;2023-12-20T00:32:35;-2.90;99.90
11762;DHT22;5938;47.098;15.474;2023-12-20T00:36:38;-2.80;99.90
11762;DHT22;5938;47.098;15.474;2023-12-20T00:40:41;-3.10;99.90
11762;DHT22;5938;47.098;15.474;2023-12-20T00:44:46;-3.00;99.90
11762;DHT22;5938;47.098;15.474;2023-12-20T00:48:49;-3.10;99.90
11762;DHT22;5938;47.098;15.474;2023-12-20T00:52:53;-2.90;99.90
11762;DHT22;5938;47.098;15.474;2023-12-20T00:56:56;-2.90;99.90
11762;DHT22;5938;47.098;15.474;2023-12-20T01:01:01;-3.00;99.90
11762;DHT22;5938;47.098;15.474;2023-12-20T01:05:05;-3.10;99.90
11762;DHT22;5938;47.098;15.474;2023-12-20T01:09:09;-3.00;99.90
11762;DHT22;5938;47.098;15.474;2023-12-20T01:13:12;-3.10;99.90
11762;DHT22;5938;47.098;15.474;2023-12-20T01:17:17;-3.00;99.90
11762;DHT22;5938;47.098;15.474;2023-12-20T01:21:20;-3.10;99.90
11762;DHT22;5938;47.098;15.474;2023-12-20T01:25:23;-3.20;99.90
11762;DHT22;5938;47.098;15.474;2023-12-20T01:29:27;-3.30;99.90
11762;DHT22;5938;47.098;15.474;2023-12-20T01:33:31;-3.20;99.90
11762;DHT22;5938;47.098;15.474;2023-12-20T01:37:35;-3.00;99.90
11762;DHT22;5938;47.098;15.474;2023-12-20T01:41:38;-3.00;99.90
11762;DHT22;5938;47.098;15.474;2023-12-20T01:45:41;-3.30;99.90
11762;DHT22;5938;47.098;15.474;2023-12-20T01:49:46;-3.20;99.90
11762;DHT22;5938;47.098;15.474;2023-12-20T01:53:50;-3.20;99.90
11762;DHT22;5938;47.098;15.474;2023-12-20T01:57:53;-3.50;99.90
11762;DHT22;5938;47.098;15.474;2023-12-20T02:01:57;-3.40;99.90
11762;DHT22;5938;47.098;15.474;2023-12-20T02:06:02;-3.40;99.90
11762;DHT22;5938;47.098;15.474;2023-12-20T02:10:06;-3.30;99.90
11762;DHT22;5938;47.098;15.474;2023-12-20T02:14:10;-3.30;99.90
11762;DHT22;5938;47.098;15.474;2023-12-20T02:18:13;-3.40;99.90
11762;DHT22;5938;47.098;15.474;2023-12-20T02:22:20;-3.40;99.90
11762;DHT22;5938;47.098;15.474;2023-12-20T02:26:23;-3.50;99.90
11762;DHT22;5938;47.098;15.474;2023-12-20T02:30:27;-3.20;99.90
11762;DHT22;5938;47.098;15.474;2023-12-20T02:34:30;-3.50;99.90
11762;DHT22;5938;47.098;15.474;2023-12-20T02:38:35;-3.40;99.90
11762;DHT22;5938;47.098;15.474;2023-12-20T02:42:38;-3.40;99.90
11762;DHT22;5938;47.098;15.474;2023-12-20T02:46:41;-3.60;99.90
11762;DHT22;5938;47.098;15.474;2023-12-20T02:50:45;-3.40;99.90
11762;DHT22;5938;47.098;15.474;2023-12-20T02:54:51;-3.30;99.90
11762;DHT22;5938;47.098;15.474;2023-12-20T02:58:54;-3.40;99.90
11762;DHT22;5938;47.098;15.474;2023-12-20T03:02:57;-3.20;99.90
11762;DHT22;5938;47.098;15.474;2023-12-20T03:07:01;-3.50;99.90
11762;DHT22;5938;47.098;15.474;2023-12-20T03:11:06;-3.40;99.90
11762;DHT22;5938;47.098;15.474;2023-12-20T03:15:10;-3.60;99.90
11762;DHT22;5938;47.098;15.474;2023-12-20T03:19:13;-3.60;99.90
11762;DHT22;5938;47.098;15.474;2023-12-20T03:23:16;-3.60;99.90
11762;DHT22;5938;47.098;15.474;2023-12-20T03:27:21;-3.70;99.90
11762;DHT22;5938;47.098;15.474;2023-12-20T03:31:24;-3.60;99.90
11762;DHT22;5938;47.098;15.474;2023-12-20T03:35:28;-3.60;99.90
11762;DHT22;5938;47.098;15.474;2023-12-20T03:39:31;-3.70;99.90
11762;DHT22;5938;47.098;15.474;2023-12-20T03:43:36;-3.50;99.90
11762;DHT22;5938;47.098;15.474;2023-12-20T03:47:39;-3.70;99.90
11762;DHT22;5938;47.098;15.474;2023-12-20T03:51:43;-3.80;99.90
11762;DHT22;5938;47.098;15.474;2023-12-20T03:55:46;-3.70;99.90
11762;DHT22;5938;47.098;15.474;2023-12-20T03:59:51;-3.50;99.90
11762;DHT22;5938;47.098;15.474;2023-12-20T04:03:54;-3.60;99.90
11762;DHT22;5938;47.098;15.474;2023-12-20T04:07:59;-3.50;99.90
11762;DHT22;5938;47.098;15.474;2023-12-20T04:12:03;-3.70;99.90
11762;DHT22;5938;47.098;15.474;2023-12-20T04:16:09;-3.60;99.90
11762;DHT22;5938;47.098;15.474;2023-12-20T04:20:12;-3.60;99.90
11762;DHT22;5938;47.098;15.474;2023-12-20T04:24:15;-3.60;99.90
11762;DHT22;5938;47.098;15.474;2023-12-20T04:28:19;-3.60;99.90
11762;DHT22;5938;47.098;15.474;2023-12-20T04:32:23;-3.80;99.90
11762;DHT22;5938;47.098;15.474;2023-12-20T04:36:26;-3.70;99.90
11762;DHT22;5938;47.098;15.474;2023-12-20T04:40:32;-3.80;99.90
11762;DHT22;5938;47.098;15.474;2023-12-20T04:44:35;-3.60;99.90
11762;DHT22;5938;47.098;15.474;2023-12-20T04:48:39;-3.60;99.90
11762;DHT22;5938;47.098;15.474;2023-12-20T04:52:43;-3.70;99.90
11762;DHT22;5938;47.098;15.474;2023-12-20T04:56:46;-3.70;99.90
11762;DHT22;5938;47.098;15.474;2023-12-20T05:00:49;-3.70;99.90
11762;DHT22;5938;47.098;15.474;2023-12-20T05:04:54;-3.80;99.90
11762;DHT22;5938;47.098;15.474;2023-12-20T05:08:59;-3.90;99.90
11762;DHT22;5938;47.098;15.474;2023-12-20T05:13:02;-3.50;99.90
11762;DHT22;5938;47.098;15.474;2023-12-20T05:17:05;-3.60;99.90
11762;DHT22;5938;47.098;15.474;2023-12-20T05:21:10;-3.80;99.90
11762;DHT22;5938;47.098;15.474;2023-12-20T05:25:13;-3.80;99.90
11762;DHT22;5938;47.098;15.474;2023-12-20T05:29:17;-3.80;99.90
11762;DHT22;5938;47.098;15.474;2023-12-20T05:33:20;-3.70;99.90
11762;DHT22;5938;47.098;15.474;2023-12-20T05:37:25;-3.60;99.90
11762;DHT22;5938;47.098;15.474;2023-12-20T05:41:28;-3.60;99.90
11762;DHT22;5938;47.098;15.474;2023-12-20T05:45:31;-3.70;99.90
11762;DHT22;5938;47.098;15.474;2023-12-20T05:49:35;-3.80;99.90
11762;DHT22;5938;47.098;15.474;2023-12-20T05:53:40;-3.80;99.90
11762;DHT22;5938;47.098;15.474;2023-12-20T05:57:43;-3.60;99.90
11762;DHT22;5938;47.098;15.474;2023-12-20T06:01:47;-3.40;99.90
11762;DHT22;5938;47.098;15.474;2023-12-20T06:05:50;-3.10;99.90
11762;DHT22;5938;47.098;15.474;2023-12-20T06:10:02;-3.00;99.90
11762;DHT22;5938;47.098;15.474;2023-12-20T06:14:06;-2.60;99.90
11762;DHT22;5938;47.098;15.474;2023-12-20T06:18:09;-2.50;99.90
11762;DHT22;5938;47.098;15.474;2023-12-20T06:22:12;-2.50;99.90
11762;DHT22;5938;47.098;15.474;2023-12-20T06:26:17;-2.40;99.90
11762;DHT22;5938;47.098;15.474;2023-12-20T06:30:21;-2.40;99.90
11762;DHT22;5938;47.098;15.474;2023-12-20T06:34:24;-2.50;99.90
11762;DHT22;5938;47.098;15.474;2023-12-20T06:38:28;-2.30;99.90
11762;DHT22;5938;47.098;15.474;2023-12-20T06:42:33;-2.20;99.90
11762;DHT22;5938;47.098;15.474;2023-12-20T06:46:54;-2.00;99.90
11762;DHT22;5938;47.098;15.474;2023-12-20T06:50:59;-2.00;99.90
11762;DHT22;5938;47.098;15.474;2023-12-20T06:55:03;-1.90;99.90
11762;DHT22;5938;47.098;15.474;2023-12-20T06:59:09;-2.00;99.90
11762;DHT22;5938;47.098;15.474;2023-12-20T07:03:13;-1.90;99.90
11762;DHT22;5938;47.098;15.474;2023-12-20T07:07:18;-1.70;99.90
11762;DHT22;5938;47.098;15.474;2023-12-20T07:11:21;-1.70;99.90
11762;DHT22;5938;47.098;15.474;2023-12-20T07:15:26;-1.60;99.90
11762;DHT22;5938;47.098;15.474;2023-12-20T07:19:31;-1.50;99.90
11762;DHT22;5938;47.098;15.474;2023-12-20T07:23:35;-1.40;99.90
11762;DHT22;5938;47.098;15.474;2023-12-20T07:27:38;-1.00;99.90
11762;DHT22;5938;47.098;15.474;2023-12-20T07:31:46;-1.10;99.90
11762;DHT22;5938;47.098;15.474;2023-12-20T07:35:50;-1.00;99.90
11762;DHT22;5938;47.098;15.474;2023-12-20T07:39:54;-0.70;99.90
11762;DHT22;5938;47.098;15.474;2023-12-20T07:43:58;-1.00;99.90
11762;DHT22;5938;47.098;15.474;2023-12-20T07:48:03;-0.90;99.90
11762;DHT22;5938;47.098;15.474;2023-12-20T07:52:07;-0.70;99.90
11762;DHT22;5938;47.098;15.474;2023-12-20T07:56:15;-0.50;99.90
11762;DHT22;5938;47.098;15.474;2023-12-20T08:00:18;-0.70;99.90
11762;DHT22;5938;47.098;15.474;2023-12-20T08:04:23;-0.70;99.90
11762;DHT22;5938;47.098;15.474;2023-12-20T08:08:27;-0.40;99.90
11762;DHT22;5938;47.098;15.474;2023-12-20T08:12:30;-0.40;99.90
11762;DHT22;5938;47.098;15.474;2023-12-20T08:16:34;-0.40;99.90
11762;DHT22;5938;47.098;15.474;2023-12-20T08:20:39;-0.40;99.90
11762;DHT22;5938;47.098;15.474;2023-12-20T08:24:42;-0.10;99.90
11762;DHT22;5938;47.098;15.474;2023-12-20T08:28:46;-0.10;99.90
11762;DHT22;5938;47.098;15.474;2023-12-20T08:32:49;0.10;99.90
11762;DHT22;5938;47.098;15.474;2023-12-20T08:36:54;0.20;99.90
11762;DHT22;5938;47.098;15.474;2023-12-20T08:40:57;0.40;99.90
11762;DHT22;5938;47.098;15.474;2023-12-20T08:45:01;0.60;99.90
11762;DHT22;5938;47.098;15.474;2023-12-20T08:49:06;0.60;99.90
11762;DHT22;5938;47.098;15.474;2023-12-20T08:53:12;0.70;99.90
11762;DHT22;5938;47.098;15.474;2023-12-20T08:57:17;0.90;99.90
11762;DHT22;5938;47.098;15.474;2023-12-20T09:01:21;1.20;99.90
11762;DHT22;5938;47.098;15.474;2023-12-20T09:05:24;1.20;99.90
11762;DHT22;5938;47.098;15.474;2023-12-20T09:09:29;1.40;99.90
11762;DHT22;5938;47.098;15.474;2023-12-20T09:13:34;1.30;99.90
11762;DHT22;5938;47.098;15.474;2023-12-20T09:17:37;1.60;99.90
11762;DHT22;5938;47.098;15.474;2023-12-20T09:21:40;1.70;99.90
11762;DHT22;5938;47.098;15.474;2023-12-20T09:25:45;1.60;99.90
11762;DHT22;5938;47.098;15.474;2023-12-20T09:29:49;1.80;99.90
11762;DHT22;5938;47.098;15.474;2023-12-20T09:33:52;1.90;99.90
11762;DHT22;5938;47.098;15.474;2023-12-20T09:37:56;2.10;99.90
11762;DHT22;5938;47.098;15.474;2023-12-20T09:42:03;2.30;99.90
11762;DHT22;5938;47.098;15.474;2023-12-20T09:46:07;2.40;99.90
11762;DHT22;5938;47.098;15.474;2023-12-20T09:50:12;2.80;99.90
11762;DHT22;5938;47.098;15.474;2023-12-20T09:54:17;3.10;99.90
11762;DHT22;5938;47.098;15.474;2023-12-20T09:58:22;3.30;99.90
11762;DHT22;5938;47.098;15.474;2023-12-20T10:02:26;3.30;99.90
11762;DHT22;5938;47.098;15.474;2023-12-20T10:06:30;3.70;99.90
11762;DHT22;5938;47.098;15.474;2023-12-20T10:10:33;4.00;99.90
11762;DHT22;5938;47.098;15.474;2023-12-20T10:14:50;4.70;99.90
11762;DHT22;5938;47.098;15.474;2023-12-20T10:18:54;4.30;99.90
11762;DHT22;5938;47.098;15.474;2023-12-20T10:22:58;4.10;99.90
11762;DHT22;5938;47.098;15.474;2023-12-20T10:27:03;4.20;99.90
11762;DHT22;5938;47.098;15.474;2023-12-20T10:31:08;4.00;99.90
11762;DHT22;5938;47.098;15.474;2023-12-20T10:35:12;4.40;99.90
11762;DHT22;5938;47.098;15.474;2023-12-20T10:39:17;4.50;99.90
11762;DHT22;5938;47.098;15.474;2023-12-20T10:43:23;4.60;99.90
11762;DHT22;5938;47.098;15.474;2023-12-20T10:47:30;4.80;99.90
11762;DHT22;5938;47.098;15.474;2023-12-20T10:51:34;4.80;99.90
11762;DHT22;5938;47.098;15.474;2023-12-20T10:55:38;4.70;99.90
11762;DHT22;5938;47.098;15.474;2023-12-20T10:59:43;4.60;99.90
11762;DHT22;5938;47.098;15.474;2023-12-20T11:03:54;4.50;99.90
11762;DHT22;5938;47.098;15.474;2023-12-20T11:08:02;4.30;99.90
11762;DHT22;5938;47.098;15.474;2023-12-20T11:12:13;4.10;99.90
11762;DHT22;5938;47.098;15.474;2023-12-20T11:16:16;4.10;99.90
11762;DHT22;5938;47.098;15.474;2023-12-20T11:20:24;4.30;99.90
11762;DHT22;5938;47.098;15.474;2023-12-20T11:24:44;4.50;99.90
11762;DHT22;5938;47.098;15.474;2023-12-20T11:28:48;4.40;99.90
11762;DHT22;5938;47.098;15.474;2023-12-20T11:32:51;4.80;99.90
11762;DHT22;5938;47.098;15.474;2023-12-20T11:37:02;4.90;99.90
11762;DHT22;5938;47.098;15.474;2023-12-20T11:41:06;4.90;99.90
11762;DHT22;5938;47.098;15.474;2023-12-20T11:45:14;5.00;99.90
11762;DHT22;5938;47.098;15.474;2023-12-20T11:49:18;5.10;99.90
11762;DHT22;5938;47.098;15.474;2023-12-20T11:53:23;5.20;99.90
11762;DHT22;5938;47.098;15.474;2023-12-20T11:57:26;5.40;99.90
11762;DHT22;5938;47.098;15.474;2023-12-20T12:01:31;5.80;99.90
11762;DHT22;5938;47.098;15.474;2023-12-20T12:05:35;6.20;99.90
11762;DHT22;5938;47.098;15.474;2023-12-20T12:09:40;6.80;99.90
11762;DHT22;5938;47.098;15.474;2023-12-20T12:13:43;6.80;99.90
11762;DHT22;5938;47.098;15.474;2023-12-20T12:17:53;6.90;99.90
11762;DHT22;5938;47.098;15.474;2023-12-20T12:22:04;6.80;99.90
11762;DHT22;5938;47.098;15.474;2023-12-20T12:26:10;6.30;99.90
11762;DHT22;5938;47.098;15.474;2023-12-20T12:30:16;6.40;99.90
11762;DHT22;5938;47.098;15.474;2023-12-20T12:34:20;6.00;99.90
11762;DHT22;5938;47.098;15.474;2023-12-20T12:38:24;6.00;99.90
11762;DHT22;5938;47.098;15.474;2023-12-20T12:42:29;6.00;99.90
11762;DHT22;5938;47.098;15.474;2023-12-20T12:46:32;6.00;99.90
11762;DHT22;5938;47.098;15.474;2023-12-20T12:50:36;5.90;99.90
11762;DHT22;5938;47.098;15.474;2023-12-20T12:54:39;5.90;99.90
11762;DHT22;5938;47.098;15.474;2023-12-20T12:58:45;5.50;99.90
11762;DHT22;5938;47.098;15.474;2023-12-20T13:02:48;5.70;99.90
11762;DHT22;5938;47.098;15.474;2023-12-20T13:06:51;5.90;99.90
11762;DHT22;5938;47.098;15.474;2023-12-20T13:10:55;6.10;99.90
11762;DHT22;5938;47.098;15.474;2023-12-20T13:15:01;6.40;99.90
11762;DHT22;5938;47.098;15.474;2023-12-20T13:19:05;6.60;99.90
11762;DHT22;5938;47.098;15.474;2023-12-20T13:23:09;6.80;99.90
11762;DHT22;5938;47.098;15.474;2023-12-20T13:27:12;6.80;99.90
11762;DHT22;5938;47.098;15.474;2023-12-20T13:31:17;6.80;99.90
11762;DHT22;5938;47.098;15.474;2023-12-20T13:35:20;6.60;99.90
11762;DHT22;5938;47.098;15.474;2023-12-20T13:39:24;6.60;99.90
11762;DHT22;5938;47.098;15.474;2023-12-20T13:43:27;6.30;99.90
11762;DHT22;5938;47.098;15.474;2023-12-20T13:47:32;6.00;99.90
11762;DHT22;5938;47.098;15.474;2023-12-20T13:51:36;5.80;99.90
11762;DHT22;5938;47.098;15.474;2023-12-20T13:55:40;5.70;99.90
11762;DHT22;5938;47.098;15.474;2023-12-20T13:59:43;5.40;99.90
11762;DHT22;5938;47.098;15.474;2023-12-20T14:03:48;5.30;99.90
11762;DHT22;5938;47.098;15.474;2023-12-20T14:07:52;5.10;99.90
11762;DHT22;5938;47.098;15.474;2023-12-20T14:11:55;4.80;99.90
11762;DHT22;5938;47.098;15.474;2023-12-20T14:15:58;4.40;99.90
11762;DHT22;5938;47.098;15.474;2023-12-20T14:20:05;4.40;99.90
11762;DHT22;5938;47.098;15.474;2023-12-20T14:24:09;4.10;99.90
11762;DHT22;5938;47.098;15.474;2023-12-20T14:28:13;4.00;99.90
11762;DHT22;5938;47.098;15.474;2023-12-20T14:32:16;3.90;99.90
11762;DHT22;5938;47.098;15.474;2023-12-20T14:36:21;3.60;99.90
11762;DHT22;5938;47.098;15.474;2023-12-20T14:40:25;3.50;99.90
11762;DHT22;5938;47.098;15.474;2023-12-20T14:44:28;3.30;99.90
11762;DHT22;5938;47.098;15.474;2023-12-20T14:48:31;3.10;99.90
11762;DHT22;5938;47.098;15.474;2023-12-20T14:52:36;2.90;99.90
11762;DHT22;5938;47.098;15.474;2023-12-20T14:56:40;2.60;99.90
11762;DHT22;5938;47.098;15.474;2023-12-20T15:00:43;2.40;99.90
11762;DHT22;5938;47.098;15.474;2023-12-20T15:04:47;2.20;99.90
11762;DHT22;5938;47.098;15.474;2023-12-20T15:08:52;1.90;99.90
11762;DHT22;5938;47.098;15.474;2023-12-20T15:12:55;1.80;99.90
11762;DHT22;5938;47.098;15.474;2023-12-20T15:16:58;1.60;99.90
11762;DHT22;5938;47.098;15.474;2023-12-20T15:21:02;1.40;99.90
11762;DHT22;5938;47.098;15.474;2023-12-20T15:25:08;1.20;99.90
11762;DHT22;5938;47.098;15.474;2023-12-20T15:29:12;0.90;99.90
11762;DHT22;5938;47.098;15.474;2023-12-20T15:33:15;0.80;99.90
11762;DHT22;5938;47.098;15.474;2023-12-20T15:37:19;0.80;99.90
11762;DHT22;5938;47.098;15.474;2023-12-20T15:41:24;0.60;99.90
11762;DHT22;5938;47.098;15.474;2023-12-20T15:45:27;0.70;99.90
11762;DHT22;5938;47.098;15.474;2023-12-20T15:49:30;0.50;99.90
11762;DHT22;5938;47.098;15.474;2023-12-20T15:53:34;0.60;99.90
11762;DHT22;5938;47.098;15.474;2023-12-20T15:57:38;0.40;99.90
11762;DHT22;5938;47.098;15.474;2023-12-20T16:01:55;0.40;99.90
11762;DHT22;5938;47.098;15.474;2023-12-20T16:05:58;0.20;99.90
11762;DHT22;5938;47.098;15.474;2023-12-20T16:10:01;0.10;99.90
11762;DHT22;5938;47.098;15.474;2023-12-20T16:14:07;0.10;99.90
11762;DHT22;5938;47.098;15.474;2023-12-20T16:18:11;-0.10;99.90
11762;DHT22;5938;47.098;15.474;2023-12-20T16:22:15;0.10;99.90
11762;DHT22;5938;47.098;15.474;2023-12-20T16:26:18;-0.30;99.90
11762;DHT22;5938;47.098;15.474;2023-12-20T16:30:23;-0.10;99.90
11762;DHT22;5938;47.098;15.474;2023-12-20T16:34:26;-0.20;99.90
11762;DHT22;5938;47.098;15.474;2023-12-20T16:38:30;-0.20;99.90
11762;DHT22;5938;47.098;15.474;2023-12-20T16:42:33;-0.70;99.90
11762;DHT22;5938;47.098;15.474;2023-12-20T16:46:38;-0.60;99.90
11762;DHT22;5938;47.098;15.474;2023-12-20T16:50:42;-0.40;99.90
11762;DHT22;5938;47.098;15.474;2023-12-20T16:54:46;-0.50;99.90
11762;DHT22;5938;47.098;15.474;2023-12-20T16:58:49;-0.90;99.90
11762;DHT22;5938;47.098;15.474;2023-12-20T17:02:54;-0.90;99.90
11762;DHT22;5938;47.098;15.474;2023-12-20T17:06:58;-0.80;99.90
11762;DHT22;5938;47.098;15.474;2023-12-20T17:11:01;-0.80;99.90
11762;DHT22;5938;47.098;15.474;2023-12-20T17:15:05;-0.80;99.90
11762;DHT22;5938;47.098;15.474;2023-12-20T17:19:10;-0.70;99.90
11762;DHT22;5938;47.098;15.474;2023-12-20T17:23:14;-0.90;99.90
11762;DHT22;5938;47.098;15.474;2023-12-20T17:27:17;-1.00;99.90
11762;DHT22;5938;47.098;15.474;2023-12-20T17:31:21;-1.10;99.90
11762;DHT22;5938;47.098;15.474;2023-12-20T17:35:27;-1.10;99.90
11762;DHT22;5938;47.098;15.474;2023-12-20T17:39:31;-1.10;99.90
11762;DHT22;5938;47.098;15.474;2023-12-20T17:43:35;-1.20;99.90
11762;DHT22;5938;47.098;15.474;2023-12-20T17:47:40;-0.90;99.90
11762;DHT22;5938;47.098;15.474;2023-12-20T17:51:45;-1.00;99.90
11762;DHT22;5938;47.098;15.474;2023-12-20T17:55:49;-1.20;99.90
11762;DHT22;5938;47.098;15.474;2023-12-20T17:59:53;-1.00;99.90
11762;DHT22;5938;47.098;15.474;2023-12-20T18:03:57;-1.40;99.90
11762;DHT22;5938;47.098;15.474;2023-12-20T18:08:08;-1.40;99.90
11762;DHT22;5938;47.098;15.474;2023-12-20T18:12:14;-1.50;99.90
11762;DHT22;5938;47.098;15.474;2023-12-20T18:16:18;-1.40;99.90
11762;DHT22;5938;47.098;15.474;2023-12-20T18:20:25;-1.60;99.90
11762;DHT22;5938;47.098;15.474;2023-12-20T18:24:32;-1.50;99.90
11762;DHT22;5938;47.098;15.474;2023-12-20T18:28:40;-1.30;99.90
11762;DHT22;5938;47.098;15.474;2023-12-20T18:32:47;-1.10;99.90
11762;DHT22;5938;47.098;15.474;2023-12-20T18:36:55;-1.30;99.90
11762;DHT22;5938;47.098;15.474;2023-12-20T18:41:03;-1.40;99.90
11762;DHT22;5938;47.098;15.474;2023-12-20T18:45:09;-1.10;99.90
11762;DHT22;5938;47.098;15.474;2023-12-20T18:49:24;-1.30;99.90
11762;DHT22;5938;47.098;15.474;2023-12-20T18:53:30;-1.60;99.90
11762;DHT22;5938;47.098;15.474;2023-12-20T18:57:39;-2.00;99.90
11762;DHT22;5938;47.098;15.474;2023-12-20T19:01:46;-1.40;99.90
11762;DHT22;5938;47.098;15.474;2023-12-20T19:05:51;-1.40;99.90
11762;DHT22;5938;47.098;15.474;2023-12-20T19:09:57;-1.60;99.90
11762;DHT22;5938;47.098;15.474;2023-12-20T19:14:05;-1.50;99.90
11762;DHT22;5938;47.098;15.474;2023-12-20T19:18:15;-1.90;99.90
11762;DHT22;5938;47.098;15.474;2023-12-20T19:22:21;-1.70;99.90
11762;DHT22;5938;47.098;15.474;2023-12-20T19:26:27;-1.80;99.90
11762;DHT22;5938;47.098;15.474;2023-12-20T19:30:35;-1.90;99.90
11762;DHT22;5938;47.098;15.474;2023-12-20T19:34:41;-1.80;99.90
11762;DHT22;5938;47.098;15.474;2023-12-20T19:38:47;-1.90;99.90
11762;DHT22;5938;47.098;15.474;2023-12-20T19:42:53;-1.90;99.90
11762;DHT22;5938;47.098;15.474;2023-12-20T19:47:02;-1.90;99.90
11762;DHT22;5938;47.098;15.474;2023-12-20T19:51:09;-1.80;99.90
11762;DHT22;5938;47.098;15.474;2023-12-20T19:55:15;-2.00;99.90
11762;DHT22;5938;47.098;15.474;2023-12-20T19:59:22;-2.30;99.90
11762;DHT22;5938;47.098;15.474;2023-12-20T20:03:30;-1.80;99.90
11762;DHT22;5938;47.098;15.474;2023-12-20T20:07:36;-1.60;99.90
11762;DHT22;5938;47.098;15.474;2023-12-20T20:12:07;-1.80;99.90
11762;DHT22;5938;47.098;15.474;2023-12-20T20:16:16;-2.00;99.90
11762;DHT22;5938;47.098;15.474;2023-12-20T20:20:29;-1.80;99.90
11762;DHT22;5938;47.098;15.474;2023-12-20T20:24:37;-1.80;99.90
11762;DHT22;5938;47.098;15.474;2023-12-20T20:28:46;-1.60;99.90
11762;DHT22;5938;47.098;15.474;2023-12-20T20:32:57;-1.80;99.90
11762;DHT22;5938;47.098;15.474;2023-12-20T20:37:07;-1.60;99.90
11762;DHT22;5938;47.098;15.474;2023-12-20T20:41:13;-1.60;99.90
11762;DHT22;5938;47.098;15.474;2023-12-20T20:45:23;-1.50;99.90
11762;DHT22;5938;47.098;15.474;2023-12-20T20:49:30;-1.50;99.90
11762;DHT22;5938;47.098;15.474;2023-12-20T20:53:38;-1.60;99.90
11762;DHT22;5938;47.098;15.474;2023-12-20T20:57:45;-1.30;99.90
11762;DHT22;5938;47.098;15.474;2023-12-20T21:01:52;-1.40;99.90
11762;DHT22;5938;47.098;15.474;2023-12-20T21:05:56;-1.50;99.90
11762;DHT22;5938;47.098;15.474;2023-12-20T21:10:02;-1.50;99.90
11762;DHT22;5938;47.098;15.474;2023-12-20T21:14:05;-1.20;99.90
11762;DHT22;5938;47.098;15.474;2023-12-20T21:18:08;-1.20;99.90
11762;DHT22;5938;47.098;15.474;2023-12-20T21:22:12;-1.40;99.90
11762;DHT22;5938;47.098;15.474;2023-12-20T21:26:17;-1.00;99.90
11762;DHT22;5938;47.098;15.474;2023-12-20T21:30:21;-1.10;99.90
11762;DHT22;5938;47.098;15.474;2023-12-20T21:34:24;-1.00;99.90
11762;DHT22;5938;47.098;15.474;2023-12-20T21:38:28;-0.90;99.90
11762;DHT22;5938;47.098;15.474;2023-12-20T21:42:33;-1.20;99.90
11762;DHT22;5938;47.098;15.474;2023-12-20T21:46:36;-1.20;99.90
11762;DHT22;5938;47.098;15.474;2023-12-20T21:50:42;-1.10;99.90
11762;DHT22;5938;47.098;15.474;2023-12-20T21:54:46;-1.10;99.90
11762;DHT22;5938;47.098;15.474;2023-12-20T21:58:51;-1.30;99.90
11762;DHT22;5938;47.098;15.474;2023-12-20T22:02:55;-1.10;99.90
11762;DHT22;5938;47.098;15.474;2023-12-20T22:07:00;-1.20;99.90
11762;DHT22;5938;47.098;15.474;2023-12-20T22:11:04;-1.00;99.90
11762;DHT22;5938;47.098;15.474;2023-12-20T22:15:10;-1.00;99.90
11762;DHT22;5938;47.098;15.474;2023-12-20T22:19:15;-1.00;99.90
11762;DHT22;5938;47.098;15.474;2023-12-20T22:23:19;-1.00;99.90
11762;DHT22;5938;47.098;15.474;2023-12-20T22:27:23;-1.20;99.90
11762;DHT22;5938;47.098;15.474;2023-12-20T22:31:28;-0.80;99.90
11762;DHT22;5938;47.098;15.474;2023-12-20T22:35:31;-1.00;99.90
11762;DHT22;5938;47.098;15.474;2023-12-20T22:39:34;-1.00;99.90
11762;DHT22;5938;47.098;15.474;2023-12-20T22:43:38;-0.80;99.90
11762;DHT22;5938;47.098;15.474;2023-12-20T22:47:43;-0.70;99.90
11762;DHT22;5938;47.098;15.474;2023-12-20T22:51:48;-0.90;99.90
11762;DHT22;5938;47.098;15.474;2023-12-20T22:55:51;-0.60;99.90
11762;DHT22;5938;47.098;15.474;2023-12-20T22:59:55;-0.60;99.90
11762;DHT22;5938;47.098;15.474;2023-12-20T23:03:59;-0.50;99.90
11762;DHT22;5938;47.098;15.474;2023-12-20T23:08:03;-0.50;99.90
11762;DHT22;5938;47.098;15.474;2023-12-20T23:12:08;-0.60;99.90
11762;DHT22;5938;47.098;15.474;2023-12-20T23:16:11;-0.40;99.90
11762;DHT22;5938;47.098;15.474;2023-12-20T23:20:16;-0.40;99.90
11762;DHT22;5938;47.098;15.474;2023-12-20T23:24:20;-0.60;99.90
11762;DHT22;5938;47.098;15.474;2023-12-20T23:28:23;-0.40;99.90
11762;DHT22;5938;47.098;15.474;2023-12-20T23:32:26;-0.60;99.90
11762;DHT22;5938;47.098;15.474;2023-12-20T23:36:31;-0.40;99.90
11762;DHT22;5938;47.098;15.474;2023-12-20T23:40:35;-0.60;99.90
11762;DHT22;5938;47.098;15.474;2023-12-20T23:44:38;-0.40;99.90
11762;DHT22;5938;47.098;15.474;2023-12-20T23:48:41;-0.60;99.90
11762;DHT22;5938;47.098;15.474;2023-12-20T23:52:46;-0.50;99.90
11762;DHT22;5938;47.098;15.474;2023-12-20T23:56:50;-0.30;99.90
